sensor_id;sensor_type;location;lat;lon;timestamp;P1;durP1;ratioP1;P2;durP2;ratioP2
62580;SDS011;48640;48.770;9.148;2023-04-15T00:02:15;6.47;;;2.95;;
62580;SDS011;48640;48.770;9.148;2023-04-15T00:07:09;6.70;;;2.58;;
62580;SDS011;48640;48.770;9.148;2023-04-15T00:09:38;5.50;;;2.75;;
62580;SDS011;48640;48.770;9.148;2023-04-15T00:12:05;5.40;;;2.10;;
62580;SDS011;48640;48.770;9.148;2023-04-15T00:14:33;7.95;;;2.70;;
62580;SDS011;48640;48.770;9.148;2023-04-15T00:17:00;5.13;;;2.22;;
62580;SDS011;48640;48.770;9.148;2023-04-15T00:19:27;7.00;;;2.90;;
62580;SDS011;48640;48.770;9.148;2023-04-15T00:21:54;5.10;;;2.17;;
62580;SDS011;48640;48.770;9.148;2023-04-15T00:24:21;7.53;;;2.60;;
62580;SDS011;48640;48.770;9.148;2023-04-15T00:26:50;3.13;;;1.75;;
62580;SDS011;48640;48.770;9.148;2023-04-15T00:29:17;6.35;;;2.40;;
62580;SDS011;48640;48.770;9.148;2023-04-15T00:31:43;6.32;;;2.28;;
62580;SDS011;48640;48.770;9.148;2023-04-15T00:34:10;7.32;;;2.75;;
62580;SDS011;48640;48.770;9.148;2023-04-15T00:36:37;7.18;;;2.40;;
62580;SDS011;48640;48.770;9.148;2023-04-15T00:39:04;7.32;;;3.03;;
62580;SDS011;48640;48.770;9.148;2023-04-15T00:41:31;5.25;;;2.72;;
62580;SDS011;48640;48.770;9.148;2023-04-15T00:44:00;6.70;;;2.80;;
62580;SDS011;48640;48.770;9.148;2023-04-15T00:46:27;5.85;;;2.90;;
62580;SDS011;48640;48.770;9.148;2023-04-15T00:48:56;6.22;;;2.55;;
62580;SDS011;48640;48.770;9.148;2023-04-15T00:51:23;6.55;;;2.47;;
62580;SDS011;48640;48.770;9.148;2023-04-15T00:53:50;6.22;;;2.30;;
62580;SDS011;48640;48.770;9.148;2023-04-15T00:56:17;6.20;;;2.50;;
62580;SDS011;48640;48.770;9.148;2023-04-15T00:58:48;7.50;;;2.40;;
62580;SDS011;48640;48.770;9.148;2023-04-15T01:01:17;6.25;;;2.60;;
62580;SDS011;48640;48.770;9.148;2023-04-15T01:03:46;6.00;;;2.28;;
62580;SDS011;48640;48.770;9.148;2023-04-15T01:06:13;5.57;;;2.85;;
62580;SDS011;48640;48.770;9.148;2023-04-15T01:08:40;7.30;;;2.90;;
62580;SDS011;48640;48.770;9.148;2023-04-15T01:11:07;8.55;;;3.25;;
62580;SDS011;48640;48.770;9.148;2023-04-15T01:13:35;5.90;;;2.60;;
62580;SDS011;48640;48.770;9.148;2023-04-15T01:16:02;5.80;;;2.50;;
62580;SDS011;48640;48.770;9.148;2023-04-15T01:18:31;8.38;;;3.25;;
62580;SDS011;48640;48.770;9.148;2023-04-15T01:20:59;5.72;;;2.65;;
62580;SDS011;48640;48.770;9.148;2023-04-15T01:23:27;5.88;;;2.50;;
62580;SDS011;48640;48.770;9.148;2023-04-15T01:25:56;6.40;;;2.60;;
62580;SDS011;48640;48.770;9.148;2023-04-15T01:28:24;7.65;;;2.70;;
62580;SDS011;48640;48.770;9.148;2023-04-15T01:31:03;6.68;;;2.90;;
62580;SDS011;48640;48.770;9.148;2023-04-15T01:33:32;5.07;;;2.63;;
62580;SDS011;48640;48.770;9.148;2023-04-15T01:35:59;7.00;;;2.58;;
62580;SDS011;48640;48.770;9.148;2023-04-15T01:38:26;4.50;;;2.20;;
62580;SDS011;48640;48.770;9.148;2023-04-15T01:40:56;6.72;;;2.30;;
62580;SDS011;48640;48.770;9.148;2023-04-15T01:43:23;10.65;;;2.97;;
62580;SDS011;48640;48.770;9.148;2023-04-15T01:45:50;6.68;;;2.90;;
62580;SDS011;48640;48.770;9.148;2023-04-15T01:48:17;6.85;;;3.10;;
62580;SDS011;48640;48.770;9.148;2023-04-15T01:50:44;6.00;;;2.65;;
62580;SDS011;48640;48.770;9.148;2023-04-15T01:53:11;5.55;;;3.13;;
62580;SDS011;48640;48.770;9.148;2023-04-15T01:55:38;4.25;;;2.38;;
62580;SDS011;48640;48.770;9.148;2023-04-15T01:58:06;7.05;;;3.45;;
62580;SDS011;48640;48.770;9.148;2023-04-15T02:00:33;7.70;;;3.05;;
62580;SDS011;48640;48.770;9.148;2023-04-15T02:03:00;4.45;;;2.17;;
62580;SDS011;48640;48.770;9.148;2023-04-15T02:05:28;6.32;;;2.47;;
62580;SDS011;48640;48.770;9.148;2023-04-15T02:07:55;5.75;;;3.17;;
62580;SDS011;48640;48.770;9.148;2023-04-15T02:10:22;6.95;;;2.95;;
62580;SDS011;48640;48.770;9.148;2023-04-15T02:12:49;7.10;;;2.85;;
62580;SDS011;48640;48.770;9.148;2023-04-15T02:15:17;7.72;;;2.70;;
62580;SDS011;48640;48.770;9.148;2023-04-15T02:17:44;7.53;;;2.60;;
62580;SDS011;48640;48.770;9.148;2023-04-15T02:20:15;8.65;;;3.05;;
62580;SDS011;48640;48.770;9.148;2023-04-15T02:22:42;7.85;;;3.03;;
62580;SDS011;48640;48.770;9.148;2023-04-15T02:25:08;7.30;;;2.55;;
62580;SDS011;48640;48.770;9.148;2023-04-15T02:27:36;9.50;;;3.70;;
62580;SDS011;48640;48.770;9.148;2023-04-15T02:30:03;6.28;;;2.50;;
62580;SDS011;48640;48.770;9.148;2023-04-15T02:32:32;7.15;;;3.22;;
62580;SDS011;48640;48.770;9.148;2023-04-15T02:35:01;5.57;;;2.60;;
62580;SDS011;48640;48.770;9.148;2023-04-15T02:37:29;4.88;;;2.70;;
62580;SDS011;48640;48.770;9.148;2023-04-15T02:39:59;6.47;;;2.58;;
62580;SDS011;48640;48.770;9.148;2023-04-15T02:42:26;5.22;;;3.30;;
62580;SDS011;48640;48.770;9.148;2023-04-15T02:44:54;6.25;;;2.50;;
62580;SDS011;48640;48.770;9.148;2023-04-15T02:47:22;4.38;;;2.50;;
62580;SDS011;48640;48.770;9.148;2023-04-15T02:49:51;6.22;;;2.53;;
62580;SDS011;48640;48.770;9.148;2023-04-15T02:52:17;5.85;;;3.03;;
62580;SDS011;48640;48.770;9.148;2023-04-15T02:54:44;6.43;;;3.03;;
62580;SDS011;48640;48.770;9.148;2023-04-15T02:57:11;8.85;;;3.08;;
62580;SDS011;48640;48.770;9.148;2023-04-15T02:59:38;6.68;;;3.22;;
62580;SDS011;48640;48.770;9.148;2023-04-15T03:02:05;7.97;;;2.80;;
62580;SDS011;48640;48.770;9.148;2023-04-15T03:04:32;7.03;;;3.13;;
62580;SDS011;48640;48.770;9.148;2023-04-15T03:07:00;5.72;;;2.92;;
62580;SDS011;48640;48.770;9.148;2023-04-15T03:09:27;6.97;;;2.97;;
62580;SDS011;48640;48.770;9.148;2023-04-15T03:11:54;4.45;;;2.42;;
62580;SDS011;48640;48.770;9.148;2023-04-15T03:14:21;8.07;;;2.72;;
62580;SDS011;48640;48.770;9.148;2023-04-15T03:16:48;4.90;;;2.20;;
62580;SDS011;48640;48.770;9.148;2023-04-15T03:19:16;5.95;;;3.05;;
62580;SDS011;48640;48.770;9.148;2023-04-15T03:21:42;4.72;;;2.90;;
62580;SDS011;48640;48.770;9.148;2023-04-15T03:24:11;7.53;;;3.33;;
62580;SDS011;48640;48.770;9.148;2023-04-15T03:26:37;6.78;;;2.80;;
62580;SDS011;48640;48.770;9.148;2023-04-15T03:29:04;7.55;;;3.25;;
62580;SDS011;48640;48.770;9.148;2023-04-15T03:31:31;6.95;;;3.15;;
62580;SDS011;48640;48.770;9.148;2023-04-15T03:33:58;11.18;;;3.20;;
62580;SDS011;48640;48.770;9.148;2023-04-15T03:36:25;6.22;;;2.80;;
62580;SDS011;48640;48.770;9.148;2023-04-15T03:38:57;8.43;;;3.13;;
62580;SDS011;48640;48.770;9.148;2023-04-15T03:41:25;8.23;;;4.40;;
62580;SDS011;48640;48.770;9.148;2023-04-15T03:43:52;5.97;;;3.60;;
62580;SDS011;48640;48.770;9.148;2023-04-15T03:46:19;6.22;;;3.15;;
62580;SDS011;48640;48.770;9.148;2023-04-15T03:48:46;8.18;;;3.25;;
62580;SDS011;48640;48.770;9.148;2023-04-15T03:51:13;7.55;;;2.80;;
62580;SDS011;48640;48.770;9.148;2023-04-15T03:53:40;7.57;;;2.90;;
62580;SDS011;48640;48.770;9.148;2023-04-15T03:56:07;5.30;;;3.15;;
62580;SDS011;48640;48.770;9.148;2023-04-15T03:58:35;6.85;;;3.40;;
62580;SDS011;48640;48.770;9.148;2023-04-15T04:01:02;7.95;;;3.03;;
62580;SDS011;48640;48.770;9.148;2023-04-15T04:03:29;7.43;;;3.20;;
62580;SDS011;48640;48.770;9.148;2023-04-15T04:05:56;7.15;;;2.80;;
62580;SDS011;48640;48.770;9.148;2023-04-15T04:08:22;6.57;;;3.40;;
62580;SDS011;48640;48.770;9.148;2023-04-15T04:10:49;8.93;;;3.78;;
62580;SDS011;48640;48.770;9.148;2023-04-15T04:13:16;7.70;;;3.10;;
62580;SDS011;48640;48.770;9.148;2023-04-15T04:15:44;6.65;;;3.15;;
62580;SDS011;48640;48.770;9.148;2023-04-15T04:18:11;9.38;;;3.58;;
62580;SDS011;48640;48.770;9.148;2023-04-15T04:20:38;7.40;;;3.25;;
62580;SDS011;48640;48.770;9.148;2023-04-15T04:23:05;8.90;;;3.40;;
62580;SDS011;48640;48.770;9.148;2023-04-15T04:25:32;5.65;;;3.05;;
62580;SDS011;48640;48.770;9.148;2023-04-15T04:27:58;9.07;;;3.30;;
62580;SDS011;48640;48.770;9.148;2023-04-15T04:30:25;9.52;;;4.07;;
62580;SDS011;48640;48.770;9.148;2023-04-15T04:32:54;5.38;;;2.95;;
62580;SDS011;48640;48.770;9.148;2023-04-15T04:35:20;6.13;;;2.92;;
62580;SDS011;48640;48.770;9.148;2023-04-15T04:37:47;7.35;;;3.28;;
62580;SDS011;48640;48.770;9.148;2023-04-15T04:40:15;5.65;;;2.97;;
62580;SDS011;48640;48.770;9.148;2023-04-15T04:42:41;9.63;;;4.75;;
62580;SDS011;48640;48.770;9.148;2023-04-15T04:45:09;6.45;;;3.20;;
62580;SDS011;48640;48.770;9.148;2023-04-15T04:47:36;5.43;;;3.10;;
62580;SDS011;48640;48.770;9.148;2023-04-15T04:50:05;7.32;;;3.15;;
62580;SDS011;48640;48.770;9.148;2023-04-15T04:52:33;6.05;;;2.90;;
62580;SDS011;48640;48.770;9.148;2023-04-15T04:55:00;7.28;;;3.63;;
62580;SDS011;48640;48.770;9.148;2023-04-15T04:57:26;5.82;;;2.80;;
62580;SDS011;48640;48.770;9.148;2023-04-15T04:59:53;9.25;;;3.10;;
62580;SDS011;48640;48.770;9.148;2023-04-15T05:02:20;4.75;;;2.90;;
62580;SDS011;48640;48.770;9.148;2023-04-15T05:04:47;7.68;;;3.50;;
62580;SDS011;48640;48.770;9.148;2023-04-15T05:07:15;7.93;;;3.83;;
62580;SDS011;48640;48.770;9.148;2023-04-15T05:09:42;6.22;;;3.58;;
62580;SDS011;48640;48.770;9.148;2023-04-15T05:12:09;7.78;;;3.30;;
62580;SDS011;48640;48.770;9.148;2023-04-15T05:14:39;9.25;;;4.53;;
62580;SDS011;48640;48.770;9.148;2023-04-15T05:17:05;7.40;;;3.28;;
62580;SDS011;48640;48.770;9.148;2023-04-15T05:19:32;7.93;;;3.10;;
62580;SDS011;48640;48.770;9.148;2023-04-15T05:21:59;6.88;;;3.90;;
62580;SDS011;48640;48.770;9.148;2023-04-15T05:24:28;7.82;;;3.63;;
62580;SDS011;48640;48.770;9.148;2023-04-15T05:26:54;7.18;;;3.55;;
62580;SDS011;48640;48.770;9.148;2023-04-15T05:29:21;8.90;;;3.78;;
62580;SDS011;48640;48.770;9.148;2023-04-15T05:31:48;8.43;;;3.63;;
62580;SDS011;48640;48.770;9.148;2023-04-15T05:34:16;11.45;;;3.80;;
62580;SDS011;48640;48.770;9.148;2023-04-15T05:36:43;7.82;;;3.55;;
62580;SDS011;48640;48.770;9.148;2023-04-15T05:39:09;7.82;;;3.50;;
62580;SDS011;48640;48.770;9.148;2023-04-15T05:41:38;6.18;;;3.42;;
62580;SDS011;48640;48.770;9.148;2023-04-15T05:44:05;7.93;;;3.58;;
62580;SDS011;48640;48.770;9.148;2023-04-15T05:46:31;6.55;;;3.47;;
62580;SDS011;48640;48.770;9.148;2023-04-15T05:48:58;6.55;;;3.67;;
62580;SDS011;48640;48.770;9.148;2023-04-15T05:51:25;6.63;;;3.17;;
62580;SDS011;48640;48.770;9.148;2023-04-15T05:53:52;5.93;;;3.40;;
62580;SDS011;48640;48.770;9.148;2023-04-15T05:56:19;7.88;;;3.75;;
62580;SDS011;48640;48.770;9.148;2023-04-15T05:58:47;4.82;;;3.20;;
62580;SDS011;48640;48.770;9.148;2023-04-15T06:01:14;6.05;;;3.25;;
62580;SDS011;48640;48.770;9.148;2023-04-15T06:03:41;7.00;;;3.20;;
62580;SDS011;48640;48.770;9.148;2023-04-15T06:06:08;11.50;;;3.20;;
62580;SDS011;48640;48.770;9.148;2023-04-15T06:08:35;6.30;;;2.92;;
62580;SDS011;48640;48.770;9.148;2023-04-15T06:11:02;7.03;;;2.97;;
62580;SDS011;48640;48.770;9.148;2023-04-15T06:13:29;5.53;;;3.10;;
62580;SDS011;48640;48.770;9.148;2023-04-15T06:15:58;6.50;;;2.92;;
62580;SDS011;48640;48.770;9.148;2023-04-15T06:18:25;5.45;;;3.20;;
62580;SDS011;48640;48.770;9.148;2023-04-15T06:20:52;8.45;;;3.65;;
62580;SDS011;48640;48.770;9.148;2023-04-15T06:23:18;7.30;;;3.60;;
62580;SDS011;48640;48.770;9.148;2023-04-15T06:25:48;7.10;;;3.50;;
62580;SDS011;48640;48.770;9.148;2023-04-15T06:28:15;8.63;;;3.42;;
62580;SDS011;48640;48.770;9.148;2023-04-15T06:30:42;6.68;;;3.35;;
62580;SDS011;48640;48.770;9.148;2023-04-15T06:33:10;5.60;;;2.90;;
62580;SDS011;48640;48.770;9.148;2023-04-15T06:35:37;6.50;;;2.78;;
62580;SDS011;48640;48.770;9.148;2023-04-15T06:38:05;6.97;;;3.53;;
62580;SDS011;48640;48.770;9.148;2023-04-15T06:40:32;7.80;;;3.28;;
62580;SDS011;48640;48.770;9.148;2023-04-15T06:42:59;5.72;;;2.95;;
62580;SDS011;48640;48.770;9.148;2023-04-15T06:45:26;7.10;;;3.28;;
62580;SDS011;48640;48.770;9.148;2023-04-15T06:47:52;6.43;;;3.15;;
62580;SDS011;48640;48.770;9.148;2023-04-15T06:50:21;7.40;;;3.20;;
62580;SDS011;48640;48.770;9.148;2023-04-15T06:52:48;8.48;;;3.78;;
62580;SDS011;48640;48.770;9.148;2023-04-15T06:55:14;7.18;;;3.33;;
62580;SDS011;48640;48.770;9.148;2023-04-15T06:57:41;9.73;;;3.25;;
62580;SDS011;48640;48.770;9.148;2023-04-15T07:00:09;7.47;;;3.95;;
62580;SDS011;48640;48.770;9.148;2023-04-15T07:02:36;7.57;;;3.10;;
62580;SDS011;48640;48.770;9.148;2023-04-15T07:05:04;7.90;;;4.07;;
62580;SDS011;48640;48.770;9.148;2023-04-15T07:07:33;8.55;;;4.00;;
62580;SDS011;48640;48.770;9.148;2023-04-15T07:10:01;6.35;;;3.53;;
62580;SDS011;48640;48.770;9.148;2023-04-15T07:12:28;9.27;;;3.85;;
62580;SDS011;48640;48.770;9.148;2023-04-15T07:14:55;9.93;;;4.22;;
62580;SDS011;48640;48.770;9.148;2023-04-15T07:17:22;6.55;;;4.03;;
62580;SDS011;48640;48.770;9.148;2023-04-15T07:19:49;9.70;;;4.45;;
62580;SDS011;48640;48.770;9.148;2023-04-15T07:22:16;11.40;;;5.57;;
62580;SDS011;48640;48.770;9.148;2023-04-15T07:24:44;10.43;;;4.45;;
62580;SDS011;48640;48.770;9.148;2023-04-15T07:27:11;6.60;;;3.95;;
62580;SDS011;48640;48.770;9.148;2023-04-15T07:29:38;5.95;;;3.88;;
62580;SDS011;48640;48.770;9.148;2023-04-15T07:32:05;9.18;;;4.28;;
62580;SDS011;48640;48.770;9.148;2023-04-15T07:34:32;7.82;;;3.90;;
62580;SDS011;48640;48.770;9.148;2023-04-15T07:36:59;9.02;;;3.42;;
62580;SDS011;48640;48.770;9.148;2023-04-15T07:39:26;10.27;;;4.47;;
62580;SDS011;48640;48.770;9.148;2023-04-15T07:41:54;7.90;;;3.55;;
62580;SDS011;48640;48.770;9.148;2023-04-15T07:44:23;5.00;;;3.45;;
62580;SDS011;48640;48.770;9.148;2023-04-15T07:46:50;10.20;;;3.90;;
62580;SDS011;48640;48.770;9.148;2023-04-15T07:49:16;8.68;;;3.33;;
62580;SDS011;48640;48.770;9.148;2023-04-15T07:51:45;10.05;;;4.18;;
62580;SDS011;48640;48.770;9.148;2023-04-15T07:54:12;6.85;;;3.58;;
62580;SDS011;48640;48.770;9.148;2023-04-15T07:56:39;8.48;;;3.78;;
62580;SDS011;48640;48.770;9.148;2023-04-15T07:59:08;8.95;;;3.85;;
62580;SDS011;48640;48.770;9.148;2023-04-15T08:01:35;10.50;;;3.70;;
62580;SDS011;48640;48.770;9.148;2023-04-15T08:04:03;7.45;;;4.28;;
62580;SDS011;48640;48.770;9.148;2023-04-15T08:06:30;6.72;;;4.50;;
62580;SDS011;48640;48.770;9.148;2023-04-15T08:08:57;5.53;;;3.38;;
62580;SDS011;48640;48.770;9.148;2023-04-15T08:11:24;6.22;;;3.90;;
62580;SDS011;48640;48.770;9.148;2023-04-15T08:13:51;9.15;;;5.05;;
62580;SDS011;48640;48.770;9.148;2023-04-15T08:16:20;6.90;;;3.67;;
62580;SDS011;48640;48.770;9.148;2023-04-15T08:18:48;6.13;;;3.28;;
62580;SDS011;48640;48.770;9.148;2023-04-15T08:21:17;7.57;;;3.20;;
62580;SDS011;48640;48.770;9.148;2023-04-15T08:23:45;8.23;;;3.92;;
62580;SDS011;48640;48.770;9.148;2023-04-15T08:26:13;6.40;;;3.95;;
62580;SDS011;48640;48.770;9.148;2023-04-15T08:28:40;7.80;;;3.70;;
62580;SDS011;48640;48.770;9.148;2023-04-15T08:31:08;9.35;;;3.60;;
62580;SDS011;48640;48.770;9.148;2023-04-15T08:33:36;8.10;;;3.38;;
62580;SDS011;48640;48.770;9.148;2023-04-15T08:36:03;7.18;;;4.18;;
62580;SDS011;48640;48.770;9.148;2023-04-15T08:38:31;6.88;;;3.88;;
62580;SDS011;48640;48.770;9.148;2023-04-15T08:40:59;6.80;;;3.75;;
62580;SDS011;48640;48.770;9.148;2023-04-15T08:43:32;6.32;;;4.05;;
62580;SDS011;48640;48.770;9.148;2023-04-15T08:46:00;5.38;;;2.92;;
62580;SDS011;48640;48.770;9.148;2023-04-15T08:48:31;6.75;;;2.63;;
62580;SDS011;48640;48.770;9.148;2023-04-15T08:51:00;6.95;;;2.88;;
62580;SDS011;48640;48.770;9.148;2023-04-15T08:53:27;5.40;;;2.40;;
62580;SDS011;48640;48.770;9.148;2023-04-15T08:55:56;4.43;;;2.13;;
62580;SDS011;48640;48.770;9.148;2023-04-15T08:58:25;4.68;;;2.65;;
62580;SDS011;48640;48.770;9.148;2023-04-15T09:00:52;6.95;;;2.85;;
62580;SDS011;48640;48.770;9.148;2023-04-15T09:03:20;5.38;;;2.15;;
62580;SDS011;48640;48.770;9.148;2023-04-15T09:05:47;6.30;;;2.60;;
62580;SDS011;48640;48.770;9.148;2023-04-15T09:08:17;5.80;;;2.53;;
62580;SDS011;48640;48.770;9.148;2023-04-15T09:10:44;6.32;;;2.30;;
62580;SDS011;48640;48.770;9.148;2023-04-15T09:13:11;4.70;;;1.83;;
62580;SDS011;48640;48.770;9.148;2023-04-15T09:15:37;11.85;;;2.75;;
62580;SDS011;48640;48.770;9.148;2023-04-15T09:18:04;5.50;;;1.75;;
62580;SDS011;48640;48.770;9.148;2023-04-15T09:20:37;3.88;;;1.52;;
62580;SDS011;48640;48.770;9.148;2023-04-15T09:23:10;3.13;;;1.35;;
62580;SDS011;48640;48.770;9.148;2023-04-15T09:25:39;4.10;;;1.40;;
62580;SDS011;48640;48.770;9.148;2023-04-15T09:28:07;3.97;;;1.65;;
62580;SDS011;48640;48.770;9.148;2023-04-15T09:30:34;3.15;;;1.52;;
62580;SDS011;48640;48.770;9.148;2023-04-15T09:33:01;4.70;;;1.60;;
62580;SDS011;48640;48.770;9.148;2023-04-15T09:35:32;3.88;;;1.48;;
62580;SDS011;48640;48.770;9.148;2023-04-15T09:38:03;6.53;;;1.95;;
62580;SDS011;48640;48.770;9.148;2023-04-15T09:40:31;5.65;;;1.80;;
62580;SDS011;48640;48.770;9.148;2023-04-15T09:43:01;3.83;;;1.75;;
62580;SDS011;48640;48.770;9.148;2023-04-15T09:45:29;4.13;;;1.80;;
62580;SDS011;48640;48.770;9.148;2023-04-15T09:47:56;4.88;;;1.33;;
62580;SDS011;48640;48.770;9.148;2023-04-15T09:50:26;4.53;;;1.52;;
62580;SDS011;48640;48.770;9.148;2023-04-15T09:52:54;4.80;;;2.15;;
62580;SDS011;48640;48.770;9.148;2023-04-15T09:55:21;3.45;;;1.50;;
62580;SDS011;48640;48.770;9.148;2023-04-15T09:57:48;2.58;;;1.25;;
62580;SDS011;48640;48.770;9.148;2023-04-15T10:00:17;4.28;;;1.70;;
62580;SDS011;48640;48.770;9.148;2023-04-15T10:02:43;3.45;;;1.40;;
62580;SDS011;48640;48.770;9.148;2023-04-15T10:05:13;3.50;;;1.50;;
62580;SDS011;48640;48.770;9.148;2023-04-15T10:07:41;3.65;;;1.65;;
62580;SDS011;48640;48.770;9.148;2023-04-15T10:10:08;4.60;;;1.90;;
62580;SDS011;48640;48.770;9.148;2023-04-15T10:12:36;5.88;;;1.90;;
62580;SDS011;48640;48.770;9.148;2023-04-15T10:15:06;5.80;;;2.30;;
62580;SDS011;48640;48.770;9.148;2023-04-15T10:17:41;6.43;;;2.10;;
62580;SDS011;48640;48.770;9.148;2023-04-15T10:20:09;5.32;;;2.22;;
62580;SDS011;48640;48.770;9.148;2023-04-15T10:22:38;5.55;;;2.05;;
62580;SDS011;48640;48.770;9.148;2023-04-15T10:25:07;3.50;;;2.03;;
62580;SDS011;48640;48.770;9.148;2023-04-15T10:27:35;7.20;;;2.97;;
62580;SDS011;48640;48.770;9.148;2023-04-15T10:30:05;4.43;;;2.40;;
62580;SDS011;48640;48.770;9.148;2023-04-15T10:32:33;5.47;;;1.95;;
62580;SDS011;48640;48.770;9.148;2023-04-15T10:35:02;7.10;;;2.72;;
62580;SDS011;48640;48.770;9.148;2023-04-15T10:37:32;4.65;;;2.30;;
62580;SDS011;48640;48.770;9.148;2023-04-15T10:40:05;5.50;;;2.90;;
62580;SDS011;48640;48.770;9.148;2023-04-15T10:42:49;5.85;;;2.45;;
62580;SDS011;48640;48.770;9.148;2023-04-15T10:45:17;5.18;;;2.88;;
62580;SDS011;48640;48.770;9.148;2023-04-15T10:47:44;5.22;;;2.22;;
62580;SDS011;48640;48.770;9.148;2023-04-15T10:50:12;3.67;;;2.30;;
62580;SDS011;48640;48.770;9.148;2023-04-15T10:52:39;4.63;;;2.40;;
62580;SDS011;48640;48.770;9.148;2023-04-15T10:55:12;3.03;;;1.90;;
62580;SDS011;48640;48.770;9.148;2023-04-15T10:57:40;4.45;;;2.33;;
62580;SDS011;48640;48.770;9.148;2023-04-15T11:00:11;5.25;;;2.70;;
62580;SDS011;48640;48.770;9.148;2023-04-15T11:02:43;5.95;;;3.00;;
62580;SDS011;48640;48.770;9.148;2023-04-15T11:05:13;5.65;;;2.55;;
62580;SDS011;48640;48.770;9.148;2023-04-15T11:07:48;6.70;;;2.80;;
62580;SDS011;48640;48.770;9.148;2023-04-15T11:13:26;5.70;;;2.53;;
62580;SDS011;48640;48.770;9.148;2023-04-15T11:15:56;6.85;;;2.90;;
62580;SDS011;48640;48.770;9.148;2023-04-15T11:20:57;8.10;;;2.75;;
62580;SDS011;48640;48.770;9.148;2023-04-15T11:23:27;5.30;;;2.70;;
62580;SDS011;48640;48.770;9.148;2023-04-15T11:25:55;8.23;;;2.60;;
62580;SDS011;48640;48.770;9.148;2023-04-15T11:28:24;5.70;;;1.92;;
62580;SDS011;48640;48.770;9.148;2023-04-15T11:30:52;6.45;;;2.13;;
62580;SDS011;48640;48.770;9.148;2023-04-15T11:33:19;6.78;;;2.50;;
62580;SDS011;48640;48.770;9.148;2023-04-15T11:35:47;6.75;;;3.20;;
62580;SDS011;48640;48.770;9.148;2023-04-15T11:38:16;5.90;;;2.80;;
62580;SDS011;48640;48.770;9.148;2023-04-15T11:40:43;6.70;;;2.35;;
62580;SDS011;48640;48.770;9.148;2023-04-15T11:43:11;5.75;;;3.10;;
62580;SDS011;48640;48.770;9.148;2023-04-15T11:45:46;4.60;;;2.65;;
62580;SDS011;48640;48.770;9.148;2023-04-15T11:48:15;5.45;;;2.90;;
62580;SDS011;48640;48.770;9.148;2023-04-15T11:50:42;6.05;;;3.00;;
62580;SDS011;48640;48.770;9.148;2023-04-15T11:53:10;5.32;;;2.90;;
62580;SDS011;48640;48.770;9.148;2023-04-15T11:55:42;6.65;;;2.72;;
62580;SDS011;48640;48.770;9.148;2023-04-15T11:58:11;6.38;;;3.10;;
62580;SDS011;48640;48.770;9.148;2023-04-15T12:00:40;4.35;;;3.05;;
62580;SDS011;48640;48.770;9.148;2023-04-15T12:03:18;6.47;;;2.90;;
62580;SDS011;48640;48.770;9.148;2023-04-15T12:06:03;4.75;;;2.70;;
62580;SDS011;48640;48.770;9.148;2023-04-15T12:08:47;5.05;;;2.75;;
62580;SDS011;48640;48.770;9.148;2023-04-15T12:11:38;6.97;;;3.00;;
62580;SDS011;48640;48.770;9.148;2023-04-15T12:14:08;6.32;;;2.85;;
62580;SDS011;48640;48.770;9.148;2023-04-15T12:16:38;6.38;;;3.28;;
62580;SDS011;48640;48.770;9.148;2023-04-15T12:19:08;5.53;;;2.40;;
62580;SDS011;48640;48.770;9.148;2023-04-15T12:21:37;5.65;;;3.05;;
62580;SDS011;48640;48.770;9.148;2023-04-15T12:24:08;8.68;;;3.50;;
62580;SDS011;48640;48.770;9.148;2023-04-15T12:26:36;5.97;;;3.40;;
62580;SDS011;48640;48.770;9.148;2023-04-15T12:29:09;6.30;;;3.05;;
62580;SDS011;48640;48.770;9.148;2023-04-15T12:31:45;5.40;;;2.70;;
62580;SDS011;48640;48.770;9.148;2023-04-15T12:34:13;6.63;;;2.88;;
62580;SDS011;48640;48.770;9.148;2023-04-15T12:36:40;5.97;;;2.80;;
62580;SDS011;48640;48.770;9.148;2023-04-15T12:39:07;5.30;;;2.42;;
62580;SDS011;48640;48.770;9.148;2023-04-15T12:41:34;4.40;;;2.58;;
62580;SDS011;48640;48.770;9.148;2023-04-15T12:44:02;6.00;;;2.70;;
62580;SDS011;48640;48.770;9.148;2023-04-15T12:46:29;6.25;;;3.25;;
62580;SDS011;48640;48.770;9.148;2023-04-15T12:48:56;5.57;;;2.55;;
62580;SDS011;48640;48.770;9.148;2023-04-15T12:51:23;6.07;;;2.80;;
62580;SDS011;48640;48.770;9.148;2023-04-15T12:53:51;7.05;;;2.70;;
62580;SDS011;48640;48.770;9.148;2023-04-15T12:56:18;8.00;;;3.40;;
62580;SDS011;48640;48.770;9.148;2023-04-15T12:58:44;5.25;;;2.85;;
62580;SDS011;48640;48.770;9.148;2023-04-15T13:01:13;4.68;;;2.85;;
62580;SDS011;48640;48.770;9.148;2023-04-15T13:03:39;6.82;;;2.70;;
62580;SDS011;48640;48.770;9.148;2023-04-15T13:06:06;8.15;;;4.10;;
62580;SDS011;48640;48.770;9.148;2023-04-15T13:08:33;4.88;;;2.47;;
62580;SDS011;48640;48.770;9.148;2023-04-15T13:11:00;8.05;;;2.55;;
62580;SDS011;48640;48.770;9.148;2023-04-15T13:13:27;4.15;;;2.55;;
62580;SDS011;48640;48.770;9.148;2023-04-15T13:15:56;4.03;;;2.33;;
62580;SDS011;48640;48.770;9.148;2023-04-15T13:18:24;5.40;;;2.20;;
62580;SDS011;48640;48.770;9.148;2023-04-15T13:20:51;8.75;;;2.50;;
62580;SDS011;48640;48.770;9.148;2023-04-15T13:23:19;5.15;;;2.40;;
62580;SDS011;48640;48.770;9.148;2023-04-15T13:25:46;5.40;;;2.22;;
62580;SDS011;48640;48.770;9.148;2023-04-15T13:28:13;4.55;;;2.15;;
62580;SDS011;48640;48.770;9.148;2023-04-15T13:30:39;3.90;;;2.10;;
62580;SDS011;48640;48.770;9.148;2023-04-15T13:33:08;6.28;;;2.17;;
62580;SDS011;48640;48.770;9.148;2023-04-15T13:35:52;3.45;;;1.65;;
62580;SDS011;48640;48.770;9.148;2023-04-15T13:38:19;3.08;;;1.60;;
62580;SDS011;48640;48.770;9.148;2023-04-15T13:40:46;4.05;;;2.15;;
62580;SDS011;48640;48.770;9.148;2023-04-15T13:43:15;3.10;;;1.85;;
62580;SDS011;48640;48.770;9.148;2023-04-15T13:45:42;4.70;;;2.20;;
62580;SDS011;48640;48.770;9.148;2023-04-15T13:48:09;4.93;;;1.92;;
62580;SDS011;48640;48.770;9.148;2023-04-15T13:50:36;2.42;;;1.40;;
62580;SDS011;48640;48.770;9.148;2023-04-15T13:53:10;2.80;;;1.40;;
62580;SDS011;48640;48.770;9.148;2023-04-15T13:55:40;3.65;;;1.40;;
62580;SDS011;48640;48.770;9.148;2023-04-15T13:58:11;2.10;;;1.35;;
62580;SDS011;48640;48.770;9.148;2023-04-15T14:00:43;2.70;;;1.70;;
62580;SDS011;48640;48.770;9.148;2023-04-15T14:03:10;5.13;;;1.80;;
62580;SDS011;48640;48.770;9.148;2023-04-15T14:05:37;3.30;;;1.63;;
62580;SDS011;48640;48.770;9.148;2023-04-15T14:08:07;3.00;;;1.17;;
62580;SDS011;48640;48.770;9.148;2023-04-15T14:13:35;4.82;;;1.65;;
62580;SDS011;48640;48.770;9.148;2023-04-15T14:16:05;3.67;;;1.25;;
62580;SDS011;48640;48.770;9.148;2023-04-15T14:18:34;4.32;;;1.75;;
62580;SDS011;48640;48.770;9.148;2023-04-15T14:21:02;2.20;;;1.00;;
62580;SDS011;48640;48.770;9.148;2023-04-15T14:23:32;2.97;;;1.10;;
62580;SDS011;48640;48.770;9.148;2023-04-15T14:26:12;2.70;;;1.20;;
62580;SDS011;48640;48.770;9.148;2023-04-15T14:28:45;3.00;;;1.20;;
62580;SDS011;48640;48.770;9.148;2023-04-15T14:31:17;2.75;;;1.27;;
62580;SDS011;48640;48.770;9.148;2023-04-15T14:33:45;2.45;;;1.42;;
62580;SDS011;48640;48.770;9.148;2023-04-15T14:39:28;3.22;;;1.33;;
62580;SDS011;48640;48.770;9.148;2023-04-15T14:42:09;4.10;;;1.95;;
62580;SDS011;48640;48.770;9.148;2023-04-15T14:44:39;4.18;;;1.45;;
62580;SDS011;48640;48.770;9.148;2023-04-15T14:47:08;5.43;;;1.55;;
62580;SDS011;48640;48.770;9.148;2023-04-15T14:49:35;4.10;;;1.38;;
62580;SDS011;48640;48.770;9.148;2023-04-15T14:52:02;2.92;;;1.40;;
62580;SDS011;48640;48.770;9.148;2023-04-15T14:54:29;4.80;;;2.08;;
62580;SDS011;48640;48.770;9.148;2023-04-15T14:56:56;4.93;;;2.20;;
62580;SDS011;48640;48.770;9.148;2023-04-15T14:59:28;3.50;;;1.50;;
62580;SDS011;48640;48.770;9.148;2023-04-15T15:01:55;3.47;;;1.73;;
62580;SDS011;48640;48.770;9.148;2023-04-15T15:07:40;3.72;;;1.90;;
62580;SDS011;48640;48.770;9.148;2023-04-15T15:10:07;4.18;;;1.70;;
62580;SDS011;48640;48.770;9.148;2023-04-15T15:12:34;5.72;;;1.65;;